createdAt,value
2022-12-29T00:00:39.414Z,98751.78
2022-12-29T00:03:58.396Z,98753.31
2022-12-29T00:07:05.449Z,98748.56
2022-12-29T00:10:14.734Z,98752.53
2022-12-29T00:13:41.501Z,98761.19
2022-12-29T00:16:56.868Z,98763.56
2022-12-29T00:20:18.825Z,98765.91
2022-12-29T00:23:39.998Z,98758.88
2022-12-29T00:27:01.912Z,98755.34
2022-12-29T00:30:29.624Z,98755.75
2022-12-29T00:33:52.608Z,98765.16
2022-12-29T00:36:56.231Z,98770.66
2022-12-29T00:40:18.400Z,98771.88
2022-12-29T00:43:39.452Z,98773.81
2022-12-29T00:46:46.528Z,98779.72
2022-12-29T00:49:51.041Z,98781.28
2022-12-29T00:52:56.179Z,98775.41
2022-12-29T00:55:59.869Z,98782.47
2022-12-29T00:59:10.446Z,98774.59
2022-12-29T01:02:16.519Z,98772.63
2022-12-29T01:05:20.969Z,98773.78
2022-12-29T01:08:25.732Z,98775.78
2022-12-29T01:11:30.707Z,98773.41
2022-12-29T01:14:35.007Z,98770.66
2022-12-29T01:17:41.142Z,98773.81
2022-12-29T01:20:47.185Z,98768.31
2022-12-29T01:23:51.178Z,98773.81
2022-12-29T01:26:55.579Z,98766.75
2022-12-29T01:29:59.779Z,98768.31
2022-12-29T01:33:06.165Z,98767.53
2022-12-29T01:36:14.622Z,98759.28
2022-12-29T01:39:18.227Z,98770.66
2022-12-29T01:42:27.353Z,98756.50
2022-12-29T01:45:34.109Z,98759.66
2022-12-29T01:48:40.917Z,98748.66
2022-12-29T01:51:49.219Z,98748.66
2022-12-29T01:54:57.375Z,98753.00
2022-12-29T01:58:05.952Z,98754.16
2022-12-29T02:01:11.204Z,98751.41
2022-12-29T02:04:16.871Z,98747.09
2022-12-29T02:07:25.612Z,98735.72
2022-12-29T02:10:34.823Z,98742.00
2022-12-29T02:13:39.734Z,98744.34
2022-12-29T02:17:05.201Z,98737.66
2022-12-29T02:20:41.899Z,98734.50
2022-12-29T02:24:13.048Z,98737.25
2022-12-29T02:27:36.890Z,98740.78
2022-12-29T02:30:53.882Z,98734.91
2022-12-29T02:34:11.516Z,98735.31
2022-12-29T02:37:23.421Z,98736.91
2022-12-29T02:40:41.244Z,98733.34
2022-12-29T02:43:52.799Z,98730.59
2022-12-29T02:47:04.624Z,98732.16
2022-12-29T02:50:14.644Z,98732.56
2022-12-29T02:53:42.476Z,98720.41
2022-12-29T02:56:46.658Z,98709.41
2022-12-29T02:59:55.623Z,98711.34
2022-12-29T03:03:19.122Z,98719.50
2022-12-29T03:06:35.486Z,98716.44
2022-12-29T03:09:45.842Z,98708.59
2022-12-29T03:13:16.272Z,98713.69
2022-12-29T03:16:27.344Z,98712.91
2022-12-29T03:19:37.996Z,98712.16
2022-12-29T03:22:45.094Z,98722.72
2022-12-29T03:26:01.810Z,98716.72
2022-12-29T03:29:35.339Z,98701.16
2022-12-29T03:32:44.292Z,98710.91
2022-12-29T03:35:56.477Z,98703.09
2022-12-29T03:39:06.212Z,98700.75
2022-12-29T03:42:17.152Z,98717.22
2022-12-29T03:45:22.905Z,98719.59
2022-12-29T03:48:27.555Z,98719.09
2022-12-29T03:51:34.703Z,98723.41
2022-12-29T03:54:40.250Z,98721.88
2022-12-29T03:57:44.501Z,98714.06
2022-12-29T04:01:22.982Z,98719.84
2022-12-29T04:04:27.250Z,98730.03
2022-12-29T04:07:34.075Z,98724.97
2022-12-29T04:10:43.190Z,98723.34
2022-12-29T04:13:46.893Z,98721.84
2022-12-29T04:17:00.213Z,98719.91
2022-12-29T04:20:17.972Z,98733.22
2022-12-29T04:23:26.987Z,98723.78
2022-12-29T04:26:32.065Z,98730.88
2022-12-29T04:29:59.848Z,98731.31
2022-12-29T04:33:12.869Z,98734.47
2022-12-29T04:36:45.599Z,98739.81
2022-12-29T04:39:51.609Z,98741.09
2022-12-29T04:42:57.161Z,98737.59
2022-12-29T04:46:05.567Z,98749.31
2022-12-29T04:49:20.811Z,98742.63
2022-12-29T04:52:45.455Z,98747.69
2022-12-29T04:55:55.009Z,98757.53
2022-12-29T04:59:00.302Z,98749.25
2022-12-29T05:02:10.483Z,98752.44
2022-12-29T05:05:14.806Z,98745.41
2022-12-29T05:08:31.733Z,98753.88
2022-12-29T05:11:42.874Z,98749.28
2022-12-29T05:14:47.693Z,98756.34
2022-12-29T05:17:51.596Z,98752.44
2022-12-29T05:20:56.181Z,98761.88
2022-12-29T05:24:01.530Z,98764.91
2022-12-29T05:27:07.828Z,98764.25
2022-12-29T05:30:46.824Z,98759.53
2022-12-29T05:34:47.757Z,98754.09
2022-12-29T05:37:51.439Z,98762.28
2022-12-29T05:40:55.799Z,98763.03
2022-12-29T05:44:28.558Z,98765.75
2022-12-29T05:47:52.751Z,98759.94
2022-12-29T05:51:08.362Z,98768.50
2022-12-29T05:54:24.922Z,98766.88
2022-12-29T05:57:30.500Z,98775.59
2022-12-29T06:00:46.552Z,98774.06
2022-12-29T06:03:53.108Z,98776.28
2022-12-29T06:07:03.337Z,98777.19
2022-12-29T06:10:19.302Z,98784.63
2022-12-29T06:13:36.972Z,98790.97
2022-12-29T06:16:43.137Z,98792.91
2022-12-29T06:19:49.720Z,98789.38
2022-12-29T06:22:55.042Z,98789.34
2022-12-29T06:26:01.777Z,98796.84
2022-12-29T06:29:06.491Z,98787.66
2022-12-29T06:32:12.525Z,98801.59
2022-12-29T06:35:31.774Z,98806.13
2022-12-29T06:38:41.677Z,98812.88
2022-12-29T06:41:49.367Z,98815.00
2022-12-29T06:45:28.857Z,98806.31
2022-12-29T06:48:34.443Z,98810.50
2022-12-29T06:51:40.860Z,98814.91
2022-12-29T06:54:48.158Z,98808.03
2022-12-29T06:57:58.493Z,98813.88
2022-12-29T07:01:02.572Z,98818.31
2022-12-29T07:04:11.218Z,98807.31
2022-12-29T07:07:17.347Z,98808.94
2022-12-29T07:10:25.510Z,98819.03
2022-12-29T07:13:29.260Z,98813.69
2022-12-29T07:16:35.495Z,98819.53
2022-12-29T07:19:41.520Z,98825.50
2022-12-29T07:22:46.475Z,98823.63
2022-12-29T07:26:02.693Z,98823.25
2022-12-29T07:29:12.216Z,98816.16
2022-12-29T07:32:16.734Z,98817.78
2022-12-29T07:35:24.584Z,98818.19
2022-12-29T07:38:29.367Z,98828.03
2022-12-29T07:41:37.570Z,98832.78
2022-12-29T07:44:47.610Z,98837.47
2022-12-29T07:48:11.036Z,98830.44
2022-12-29T07:51:17.816Z,98833.56
2022-12-29T07:54:24.081Z,98829.63
2022-12-29T07:57:32.121Z,98830.00
2022-12-29T08:00:39.967Z,98834.31
2022-12-29T08:03:55.421Z,98839.06
2022-12-29T08:07:04.693Z,98837.84
2022-12-29T08:10:09.421Z,98833.84
2022-12-29T08:13:18.482Z,98822.50
2022-12-29T08:16:30.133Z,98824.44
2022-12-29T08:19:41.029Z,98825.19
2022-12-29T08:22:49.915Z,98825.13
2022-12-29T08:26:07.294Z,98834.91
2022-12-29T08:29:14.101Z,98834.44
2022-12-29T08:32:20.784Z,98815.88
2022-12-29T08:35:24.779Z,98819.44
2022-12-29T08:38:33.056Z,98820.50
2022-12-29T08:41:39.547Z,98817.72
2022-12-29T08:44:45.031Z,98818.44
2022-12-29T08:47:48.874Z,98820.78
2022-12-29T08:50:56.442Z,98821.88
2022-12-29T08:54:07.702Z,98832.13
2022-12-29T08:57:13.279Z,98822.56
2022-12-29T09:00:30.776Z,98830.09
2022-12-29T09:04:13.503Z,98827.72
2022-12-29T09:07:03.924Z,98828.75
2022-12-29T09:10:11.402Z,98823.16
2022-12-29T09:13:18.004Z,98827.00
2022-12-29T09:16:30.508Z,98833.28
2022-12-29T09:19:35.832Z,98826.97
2022-12-29T09:22:41.291Z,98825.97
2022-12-29T09:25:46.478Z,98821.59
2022-12-29T09:28:52.085Z,98831.38
2022-12-29T09:31:56.339Z,98817.13
2022-12-29T09:35:03.605Z,98803.31
2022-12-29T09:38:08.513Z,98806.78
2022-12-29T09:41:23.063Z,98794.81
2022-12-29T09:44:40.020Z,98787.72
2022-12-29T09:47:50.259Z,98778.63
2022-12-29T09:50:59.669Z,98783.91
2022-12-29T09:54:23.259Z,98768.38
2022-12-29T09:57:35.989Z,98754.88
2022-12-29T10:00:54.561Z,98757.09
2022-12-29T10:04:08.936Z,98757.28
2022-12-29T10:07:30.154Z,98757.56
2022-12-29T10:10:42.913Z,98752.28
2022-12-29T10:14:10.898Z,98747.06
2022-12-29T10:17:29.560Z,98747.69
2022-12-29T10:20:51.624Z,98729.72
2022-12-29T10:23:56.731Z,98724.00
2022-12-29T10:27:09.725Z,98721.41
2022-12-29T10:30:25.399Z,98702.69
2022-12-29T10:33:39.383Z,98715.19
2022-12-29T10:36:51.969Z,98707.47
2022-12-29T10:40:01.723Z,98701.03
2022-12-29T10:43:21.480Z,98696.41
2022-12-29T10:46:31.596Z,98694.22
2022-12-29T10:49:50.188Z,98699.47
2022-12-29T10:52:56.330Z,98691.59
2022-12-29T10:56:07.096Z,98691.28
2022-12-29T10:59:20.022Z,98687.09
2022-12-29T11:03:00.296Z,98674.59
2022-12-29T11:06:16.042Z,98676.88
2022-12-29T11:09:42.163Z,98670.81
2022-12-29T11:12:59.234Z,98666.72
2022-12-29T11:16:04.454Z,98663.59
2022-12-29T11:19:22.129Z,98656.41
2022-12-29T11:22:30.215Z,98647.72
2022-12-29T11:25:36.285Z,98650.84
2022-12-29T11:28:42.216Z,98656.41
2022-12-29T11:31:51.484Z,98649.97
2022-12-29T11:34:55.524Z,98651.56
2022-12-29T11:38:04.124Z,98639.56
2022-12-29T11:41:14.919Z,98635.47
2022-12-29T11:44:19.953Z,98628.97
2022-12-29T11:47:32.517Z,98625.84
2022-12-29T11:50:46.009Z,98632.44
2022-12-29T11:53:54.582Z,98635.03
2022-12-29T11:57:05.399Z,98624.44
2022-12-29T12:00:19.327Z,98619.50
2022-12-29T12:03:27.116Z,98630.41
2022-12-29T12:06:40.605Z,98624.34
2022-12-29T12:09:53.126Z,98622.25
2022-12-29T12:13:07.334Z,98613.38
2022-12-29T12:16:19.048Z,98613.97
2022-12-29T12:19:35.585Z,98616.13
2022-12-29T12:22:45.660Z,98606.44
2022-12-29T12:26:00.089Z,98602.72
2022-12-29T12:29:12.879Z,98599.41
2022-12-29T12:32:23.274Z,98601.41
2022-12-29T12:35:41.339Z,98602.28
2022-12-29T12:38:57.336Z,98601.06
2022-12-29T12:42:22.548Z,98599.50
2022-12-29T12:45:45.919Z,98587.84
2022-12-29T12:49:04.060Z,98586.50
2022-12-29T12:52:16.709Z,98587.97
2022-12-29T12:55:51.569Z,98570.63
2022-12-29T12:59:09.159Z,98585.53
2022-12-29T13:02:29.038Z,98579.53
2022-12-29T13:05:47.126Z,98582.66
2022-12-29T13:09:13.196Z,98579.78
2022-12-29T13:12:31.531Z,98577.84
2022-12-29T13:15:49.076Z,98580.19
2022-12-29T13:19:01.492Z,98578.78
2022-12-29T13:22:15.418Z,98581.09
2022-12-29T13:25:30.318Z,98584.69
2022-12-29T13:28:43.430Z,98585.78
2022-12-29T13:32:01.254Z,98586.22
2022-12-29T13:35:24.735Z,98571.53
2022-12-29T13:38:37.354Z,98574.53
2022-12-29T13:41:50.035Z,98583.34
2022-12-29T13:45:02.279Z,98579.66
2022-12-29T13:48:18.649Z,98578.47
2022-12-29T13:51:28.305Z,98585.00
2022-12-29T13:54:44.274Z,98581.13
2022-12-29T13:57:56.248Z,98583.81
2022-12-29T14:01:11.629Z,98580.69
2022-12-29T14:04:23.831Z,98580.56
2022-12-29T14:07:30.935Z,98579.22
2022-12-29T14:10:52.260Z,98572.69
2022-12-29T14:14:16.976Z,98579.56
2022-12-29T14:17:23.723Z,98582.81
2022-12-29T14:20:30.896Z,98590.25
2022-12-29T14:23:40.969Z,98582.25
2022-12-29T14:26:47.700Z,98580.13
2022-12-29T14:29:53.992Z,98593.94
2022-12-29T14:33:14.064Z,98590.03
2022-12-29T14:36:31.684Z,98600.28
2022-12-29T14:39:41.373Z,98599.06
2022-12-29T14:42:48.794Z,98585.47
2022-12-29T14:46:03.393Z,98590.59
2022-12-29T14:49:19.870Z,98589.81
2022-12-29T14:52:34.401Z,98592.91
2022-12-29T14:55:43.372Z,98591.03
2022-12-29T14:58:57.002Z,98584.22
2022-12-29T15:02:06.146Z,98593.38
2022-12-29T15:05:28.583Z,98591.59
2022-12-29T15:08:43.042Z,98582.03
2022-12-29T15:11:53.017Z,98596.72
2022-12-29T15:15:05.711Z,98593.94
2022-12-29T15:18:34.864Z,98590.81
2022-12-29T15:21:39.133Z,98598.38
2022-12-29T15:24:46.400Z,98600.81
2022-12-29T15:27:55.128Z,98595.69
2022-12-29T15:31:05.930Z,98595.25
2022-12-29T15:34:15.661Z,98593.47
2022-12-29T15:37:25.775Z,98604.28
2022-12-29T15:40:33.904Z,98611.06
2022-12-29T15:43:54.816Z,98601.59
2022-12-29T15:46:59.300Z,98593.59
2022-12-29T15:50:07.791Z,98598.38
2022-12-29T15:53:14.502Z,98594.50
2022-12-29T15:56:33.858Z,98599.72
2022-12-29T15:59:49.766Z,98600.94
2022-12-29T16:02:58.715Z,98596.59
2022-12-29T16:06:11.589Z,98612.59
2022-12-29T16:09:20.099Z,98603.53
2022-12-29T16:12:33.726Z,98602.38
2022-12-29T16:15:43.601Z,98598.47
2022-12-29T16:18:51.954Z,98602.50
2022-12-29T16:22:10.941Z,98604.25
2022-12-29T16:25:24.821Z,98593.91
2022-12-29T16:28:38.588Z,98589.25
2022-12-29T16:32:01.796Z,98609.28
2022-12-29T16:35:23.300Z,98604.16
2022-12-29T16:38:35.912Z,98603.16
2022-12-29T16:41:41.297Z,98606.59
2022-12-29T16:44:46.823Z,98613.81
2022-12-29T16:48:11.847Z,98610.59
2022-12-29T16:51:18.177Z,98615.72
2022-12-29T16:54:29.925Z,98613.38
2022-12-29T16:57:39.512Z,98619.28
2022-12-29T17:00:48.824Z,98620.94
2022-12-29T17:03:58.531Z,98623.38
2022-12-29T17:07:05.349Z,98621.91
2022-12-29T17:10:09.970Z,98617.81
2022-12-29T17:13:14.403Z,98610.03
2022-12-29T17:16:19.595Z,98622.34
2022-12-29T17:19:33.270Z,98620.44
2022-12-29T17:22:37.112Z,98611.22
2022-12-29T17:25:41.103Z,98620.13
2022-12-29T17:28:47.513Z,98620.66
2022-12-29T17:31:54.531Z,98618.53
2022-12-29T17:34:58.123Z,98627.31
2022-12-29T17:38:02.248Z,98620.84
2022-12-29T17:41:06.385Z,98625.44
2022-12-29T17:44:19.035Z,98624.44
2022-12-29T17:47:23.938Z,98629.22
2022-12-29T17:50:32.509Z,98635.56
2022-12-29T17:53:36.401Z,98638.69
2022-12-29T17:56:45.335Z,98636.88
2022-12-29T17:59:50.638Z,98635.22
2022-12-29T18:02:57.009Z,98634.63
2022-12-29T18:06:00.905Z,98625.94
2022-12-29T18:09:08.832Z,98623.06
2022-12-29T18:12:29.320Z,98627.97
2022-12-29T18:15:36.567Z,98625.75
2022-12-29T18:18:41.873Z,98630.75
2022-12-29T18:21:45.840Z,98628.09
2022-12-29T18:24:49.508Z,98628.91
2022-12-29T18:27:53.674Z,98628.38
2022-12-29T18:31:04.321Z,98622.47
2022-12-29T18:34:15.628Z,98630.63
2022-12-29T18:37:19.048Z,98626.03
2022-12-29T18:40:25.559Z,98628.28
2022-12-29T18:43:31.745Z,98636.53
2022-12-29T18:46:37.475Z,98623.25
2022-12-29T18:49:43.345Z,98609.66
2022-12-29T18:52:47.719Z,98606.88
2022-12-29T18:55:51.979Z,98615.13
2022-12-29T18:59:00.512Z,98626.72
2022-12-29T19:02:04.124Z,98622.19
2022-12-29T19:05:21.269Z,98623.91
2022-12-29T19:08:25.969Z,98618.34
2022-12-29T19:11:30.223Z,98625.03
2022-12-29T19:14:34.760Z,98623.56
2022-12-29T19:17:38.696Z,98620.09
2022-12-29T19:20:47.671Z,98619.88
2022-12-29T19:23:54.446Z,98632.13
2022-12-29T19:26:59.227Z,98624.91
2022-12-29T19:30:06.369Z,98623.91
2022-12-29T19:33:13.896Z,98635.44
2022-12-29T19:36:23.797Z,98640.75
2022-12-29T19:39:29.745Z,98637.69
2022-12-29T19:42:34.334Z,98642.41
2022-12-29T19:45:41.955Z,98645.81
2022-12-29T19:48:47.428Z,98645.84
2022-12-29T19:51:52.928Z,98644.88
2022-12-29T19:54:57.022Z,98648.63
2022-12-29T19:58:00.857Z,98641.00
2022-12-29T20:01:08.278Z,98638.97
2022-12-29T20:04:11.985Z,98634.53
2022-12-29T20:07:19.769Z,98639.44
2022-12-29T20:10:25.412Z,98639.19
2022-12-29T20:13:29.633Z,98644.28
2022-12-29T20:16:33.739Z,98650.06
2022-12-29T20:19:39.192Z,98642.06
2022-12-29T20:22:44.465Z,98645.94
2022-12-29T20:25:55.717Z,98631.53
2022-12-29T20:29:00.223Z,98633.88
2022-12-29T20:32:05.036Z,98638.13
2022-12-29T20:35:09.443Z,98630.31
2022-12-29T20:38:14.863Z,98621.78
2022-12-29T20:41:19.193Z,98639.47
2022-12-29T20:44:23.297Z,98631.22
2022-12-29T20:47:27.977Z,98636.81
2022-12-29T20:50:32.033Z,98632.91
2022-12-29T20:53:56.980Z,98643.06
2022-12-29T20:57:01.249Z,98632.28
2022-12-29T21:00:06.577Z,98631.13
2022-12-29T21:03:11.775Z,98645.56
2022-12-29T21:06:16.572Z,98644.59
2022-12-29T21:09:21.953Z,98643.91
2022-12-29T21:12:25.727Z,98641.41
2022-12-29T21:15:30.087Z,98638.38
2022-12-29T21:18:34.238Z,98641.59
2022-12-29T21:21:41.889Z,98650.25
2022-12-29T21:24:47.104Z,98649.78
2022-12-29T21:27:51.640Z,98645.72
2022-12-29T21:30:55.278Z,98645.81
2022-12-29T21:34:00.418Z,98648.91
2022-12-29T21:37:04.014Z,98640.00
2022-12-29T21:40:12.137Z,98648.91
2022-12-29T21:43:16.631Z,98642.59
2022-12-29T21:46:22.761Z,98645.25
2022-12-29T21:49:27.907Z,98648.25
2022-12-29T21:52:31.703Z,98637.06
2022-12-29T21:55:36.984Z,98632.84
2022-12-29T21:59:00.294Z,98629.34
2022-12-29T22:02:23.323Z,98623.88
2022-12-29T22:05:49.946Z,98624.25
2022-12-29T22:09:12.639Z,98623.28
2022-12-29T22:12:35.387Z,98625.91
2022-12-29T22:15:40.238Z,98624.19
2022-12-29T22:18:44.544Z,98629.13
2022-12-29T22:21:48.154Z,98619.97
2022-12-29T22:24:53.485Z,98624.09
2022-12-29T22:27:59.988Z,98624.03
2022-12-29T22:31:03.915Z,98628.63
2022-12-29T22:34:07.947Z,98621.47
2022-12-29T22:37:14.760Z,98609.94
2022-12-29T22:40:18.440Z,98607.97
2022-12-29T22:43:26.334Z,98606.09
2022-12-29T22:46:29.934Z,98605.78
2022-12-29T22:49:33.834Z,98597.25
2022-12-29T22:52:37.367Z,98601.28
2022-12-29T22:55:43.365Z,98586.88
2022-12-29T22:59:06.977Z,98593.41
2022-12-29T23:02:11.146Z,98594.50
2022-12-29T23:05:14.813Z,98583.75
2022-12-29T23:08:19.413Z,98588.91
2022-12-29T23:11:22.915Z,98583.81
2022-12-29T23:14:33.204Z,98580.66
2022-12-29T23:17:37.309Z,98581.69
2022-12-29T23:20:41.931Z,98581.69
2022-12-29T23:23:56.274Z,98583.41
2022-12-29T23:27:00.318Z,98575.50
2022-12-29T23:30:05.945Z,98583.81
2022-12-29T23:33:10.175Z,98576.47
2022-12-29T23:36:14.407Z,98579.25
2022-12-29T23:39:24.591Z,98586.84
2022-12-29T23:42:28.502Z,98585.22
2022-12-29T23:45:39.361Z,98585.69
2022-12-29T23:48:44.451Z,98587.50
2022-12-29T23:51:49.310Z,98588.09
2022-12-29T23:54:53.991Z,98587.88
2022-12-29T23:57:58.189Z,98584.91
